createdAt,value
2017-11-27T00:00:57.916Z,3.70
2017-11-27T00:03:27.679Z,3.60
2017-11-27T00:05:56.649Z,3.60
2017-11-27T00:08:26.500Z,3.60
2017-11-27T00:10:56.522Z,3.50
2017-11-27T00:13:26.289Z,3.40
2017-11-27T00:15:55.439Z,3.40
2017-11-27T00:18:24.393Z,3.30
2017-11-27T00:20:53.349Z,3.40
2017-11-27T00:23:22.352Z,3.40
2017-11-27T00:25:51.745Z,3.40
2017-11-27T00:28:20.724Z,3.40
2017-11-27T00:30:49.767Z,3.30
2017-11-27T00:33:19.248Z,3.40
2017-11-27T00:35:48.230Z,3.40
2017-11-27T00:38:17.186Z,3.40
2017-11-27T00:40:46.186Z,3.40
2017-11-27T00:43:15.201Z,3.30
2017-11-27T00:45:44.598Z,3.30
2017-11-27T00:48:13.607Z,3.30
2017-11-27T00:50:42.562Z,3.30
2017-11-27T00:53:11.574Z,3.30
2017-11-27T00:55:40.585Z,3.20
2017-11-27T00:58:09.549Z,3.10
2017-11-27T01:00:38.573Z,3.10
2017-11-27T01:03:07.527Z,3.10
2017-11-27T01:05:36.526Z,3.20
2017-11-27T01:08:05.522Z,3.30
2017-11-27T01:10:34.530Z,3.20
2017-11-27T01:13:03.575Z,3.20
2017-11-27T01:15:33.317Z,3.30
2017-11-27T01:18:02.306Z,3.20
2017-11-27T01:20:31.433Z,3.30
2017-11-27T01:23:00.435Z,3.30
2017-11-27T01:25:29.393Z,3.30
2017-11-27T01:27:58.447Z,3.30
2017-11-27T01:30:27.397Z,3.40
2017-11-27T01:32:56.355Z,3.30
2017-11-27T01:35:25.357Z,3.40
2017-11-27T01:37:54.342Z,3.40
2017-11-27T01:40:24.093Z,3.40
2017-11-27T01:42:53.894Z,3.40
2017-11-27T01:45:22.886Z,3.30
2017-11-27T01:47:51.850Z,3.20
2017-11-27T01:50:20.855Z,3.30
2017-11-27T01:52:49.822Z,3.40
2017-11-27T01:55:18.814Z,3.40
2017-11-27T01:57:48.204Z,3.40
2017-11-27T02:00:17.559Z,3.30
2017-11-27T02:02:46.562Z,3.40
2017-11-27T02:05:16.321Z,3.40
2017-11-27T02:07:45.353Z,3.30
2017-11-27T02:10:14.293Z,3.30
2017-11-27T02:12:44.028Z,3.30
2017-11-27T02:15:13.033Z,3.20
2017-11-27T02:17:42.120Z,3.20
2017-11-27T02:20:11.091Z,3.20
2017-11-27T02:22:40.077Z,3.20
2017-11-27T02:25:09.957Z,3.30
2017-11-27T02:27:38.941Z,3.40
2017-11-27T02:30:07.922Z,3.40
2017-11-27T02:32:36.919Z,3.50
2017-11-27T02:35:05.905Z,3.60
2017-11-27T02:37:34.997Z,3.50
2017-11-27T02:40:04.822Z,3.60
2017-11-27T02:42:33.820Z,3.60
2017-11-27T02:45:02.797Z,3.60
2017-11-27T02:47:33.357Z,3.50
2017-11-27T02:50:02.326Z,3.60
2017-11-27T02:52:31.374Z,3.60
2017-11-27T02:55:00.387Z,3.50
2017-11-27T02:57:29.367Z,3.60
2017-11-27T02:59:58.345Z,3.60
2017-11-27T03:02:27.366Z,3.60
2017-11-27T03:04:56.363Z,3.70
2017-11-27T03:07:25.335Z,3.60
2017-11-27T03:09:54.335Z,3.60
2017-11-27T03:12:23.396Z,3.60
2017-11-27T03:14:53.123Z,3.60
2017-11-27T03:17:22.102Z,3.60
2017-11-27T03:19:51.934Z,3.70
2017-11-27T03:22:21.047Z,3.60
2017-11-27T03:24:50.042Z,3.60
2017-11-27T03:27:19.038Z,3.70
2017-11-27T03:29:48.049Z,3.70
2017-11-27T03:32:17.138Z,3.70
2017-11-27T03:34:46.126Z,3.70
2017-11-27T03:37:15.132Z,3.70
2017-11-27T03:39:44.095Z,3.70
2017-11-27T03:42:14.234Z,3.70
2017-11-27T03:44:43.218Z,3.80
2017-11-27T03:47:12.631Z,3.80
2017-11-27T03:49:41.617Z,3.70
2017-11-27T03:52:10.665Z,3.70
2017-11-27T03:54:40.469Z,3.80
2017-11-27T03:57:10.324Z,3.80
2017-11-27T03:59:39.343Z,3.80
2017-11-27T04:02:08.389Z,3.80
2017-11-27T04:04:37.404Z,3.80
2017-11-27T04:07:06.856Z,3.90
2017-11-27T04:09:35.975Z,4.00
2017-11-27T04:12:04.977Z,4.00
2017-11-27T04:14:34.364Z,3.90
2017-11-27T04:17:04.197Z,4.00
2017-11-27T04:19:33.207Z,4.00
2017-11-27T04:22:02.199Z,3.90
2017-11-27T04:24:31.985Z,4.00
2017-11-27T04:27:01.407Z,3.90
2017-11-27T04:29:31.186Z,3.80
2017-11-27T04:32:00.557Z,3.90
2017-11-27T04:34:30.352Z,3.90
2017-11-27T04:37:00.647Z,4.00
2017-11-27T04:39:29.629Z,3.90
2017-11-27T04:41:58.640Z,3.90
2017-11-27T04:44:30.033Z,3.90
2017-11-27T04:46:59.087Z,3.90
2017-11-27T04:49:28.478Z,3.90
2017-11-27T04:51:57.511Z,4.00
2017-11-27T04:54:26.507Z,4.00
2017-11-27T04:56:55.516Z,4.00
2017-11-27T04:59:24.495Z,4.10
2017-11-27T05:01:53.500Z,4.00
2017-11-27T05:04:23.294Z,4.10
2017-11-27T05:06:52.309Z,4.10
2017-11-27T05:09:21.450Z,4.00
2017-11-27T05:11:50.851Z,4.00
2017-11-27T05:14:20.749Z,4.00
2017-11-27T05:16:49.745Z,3.90
2017-11-27T05:19:18.765Z,4.00
2017-11-27T05:21:48.246Z,4.00
2017-11-27T05:24:17.222Z,4.00
2017-11-27T05:26:46.594Z,3.90
2017-11-27T05:29:16.359Z,4.00
2017-11-27T05:31:45.403Z,3.90
2017-11-27T05:34:15.154Z,3.90
2017-11-27T05:36:45.036Z,3.90
2017-11-27T05:39:14.805Z,4.00
2017-11-27T05:41:43.833Z,4.00
2017-11-27T05:44:13.602Z,4.00
2017-11-27T05:46:42.634Z,4.00
2017-11-27T05:49:12.619Z,4.10
2017-11-27T05:51:41.626Z,4.70
2017-11-27T05:54:10.647Z,4.20
2017-11-27T05:56:40.405Z,4.20
2017-11-27T05:59:09.399Z,4.20
2017-11-27T06:01:38.405Z,4.30
2017-11-27T06:04:08.330Z,4.30
2017-11-27T06:06:37.349Z,4.20
2017-11-27T06:09:07.117Z,4.20
2017-11-27T06:11:36.140Z,4.30
2017-11-27T06:14:05.876Z,4.30
2017-11-27T06:16:34.903Z,4.30
2017-11-27T06:19:03.882Z,4.30
2017-11-27T06:21:32.893Z,4.30
2017-11-27T06:24:01.893Z,4.30
2017-11-27T06:26:31.807Z,4.40
2017-11-27T06:29:00.796Z,4.40
2017-11-27T06:31:29.798Z,4.40
2017-11-27T06:34:00.287Z,4.40
2017-11-27T06:36:29.291Z,4.50
2017-11-27T06:38:58.245Z,4.40
2017-11-27T06:41:27.493Z,4.50
2017-11-27T06:43:56.514Z,4.50
2017-11-27T06:46:25.512Z,4.50
2017-11-27T06:48:54.528Z,4.60
2017-11-27T06:51:23.535Z,4.60
2017-11-27T06:53:52.509Z,4.60
2017-11-27T06:56:21.502Z,4.60
2017-11-27T06:58:50.472Z,4.50
2017-11-27T07:01:19.471Z,4.60
2017-11-27T07:03:49.234Z,4.60
2017-11-27T07:06:18.231Z,4.70
2017-11-27T07:08:47.234Z,4.70
2017-11-27T07:11:16.268Z,4.70
2017-11-27T07:13:45.647Z,4.70
2017-11-27T07:16:15.541Z,4.80
2017-11-27T07:18:44.583Z,4.70
2017-11-27T07:21:14.362Z,4.80
2017-11-27T07:23:43.411Z,4.70
2017-11-27T07:26:12.389Z,4.70
2017-11-27T07:28:41.819Z,4.70
2017-11-27T07:31:11.644Z,4.70
2017-11-27T07:33:40.625Z,4.70
2017-11-27T07:36:09.660Z,4.70
2017-11-27T07:38:44.966Z,4.70
2017-11-27T07:41:13.966Z,4.70
2017-11-27T07:43:42.948Z,4.60
2017-11-27T07:46:11.990Z,4.60
2017-11-27T07:48:41.352Z,4.50
2017-11-27T07:51:10.336Z,4.50
2017-11-27T07:53:39.315Z,4.50
2017-11-27T07:56:08.369Z,4.50
2017-11-27T07:58:38.171Z,4.60
2017-11-27T08:01:07.243Z,4.70
2017-11-27T08:03:36.232Z,4.60
2017-11-27T08:06:05.718Z,4.70
2017-11-27T08:08:34.761Z,4.60
2017-11-27T08:11:04.179Z,4.70
2017-11-27T08:13:33.926Z,4.80
2017-11-27T08:16:02.938Z,4.80
2017-11-27T08:18:31.987Z,4.70
2017-11-27T08:21:01.183Z,4.70
2017-11-27T08:23:30.618Z,4.70
2017-11-27T08:25:59.725Z,4.60
2017-11-27T08:28:28.853Z,4.50
2017-11-27T08:30:58.616Z,4.40
2017-11-27T08:33:27.650Z,4.50
2017-11-27T08:35:56.593Z,4.50
2017-11-27T08:38:25.658Z,4.60
2017-11-27T08:40:54.640Z,4.60
2017-11-27T08:43:24.418Z,4.50
2017-11-27T08:45:53.481Z,4.50
2017-11-27T08:48:22.473Z,4.50
2017-11-27T08:50:51.482Z,4.50
2017-11-27T08:53:20.457Z,4.50
2017-11-27T08:55:49.432Z,4.50
2017-11-27T08:58:18.434Z,4.50
2017-11-27T09:00:47.422Z,4.50
2017-11-27T09:03:16.419Z,4.50
2017-11-27T09:05:45.386Z,4.60
2017-11-27T09:08:15.161Z,4.50
2017-11-27T09:10:44.238Z,4.50
2017-11-27T09:13:13.211Z,4.50
2017-11-27T09:15:42.214Z,4.50
2017-11-27T09:18:11.323Z,4.50
2017-11-27T09:20:40.367Z,4.60
2017-11-27T09:23:10.141Z,4.50
2017-11-27T09:25:39.162Z,4.50
2017-11-27T09:28:08.904Z,4.50
2017-11-27T09:30:38.730Z,4.60
2017-11-27T09:33:08.108Z,4.70
2017-11-27T09:35:37.657Z,4.70
2017-11-27T09:38:07.067Z,4.80
2017-11-27T09:40:37.566Z,4.80
2017-11-27T09:43:07.435Z,4.70
2017-11-27T09:45:37.223Z,4.70
2017-11-27T09:48:07.015Z,4.70
2017-11-27T09:50:36.104Z,4.70
2017-11-27T09:53:05.151Z,4.80
2017-11-27T09:55:34.896Z,4.80
2017-11-27T09:58:03.949Z,4.90
2017-11-27T10:00:32.940Z,4.90
2017-11-27T10:03:02.312Z,4.90
2017-11-27T10:05:31.349Z,4.90
2017-11-27T10:08:00.414Z,4.90
2017-11-27T10:10:29.370Z,5.00
2017-11-27T10:12:58.361Z,5.00
2017-11-27T10:15:27.339Z,5.10
2017-11-27T10:17:57.597Z,5.10
2017-11-27T10:20:26.968Z,5.10
2017-11-27T10:22:55.967Z,5.20
2017-11-27T10:25:24.979Z,5.30
2017-11-27T10:27:54.009Z,5.20
2017-11-27T10:30:23.002Z,5.20
2017-11-27T10:32:52.777Z,5.20
2017-11-27T10:35:21.751Z,5.20
2017-11-27T10:37:50.837Z,5.20
2017-11-27T10:40:19.802Z,5.20
2017-11-27T10:42:49.540Z,5.30
2017-11-27T10:45:19.286Z,5.30
2017-11-27T10:47:48.645Z,5.40
2017-11-27T10:50:17.675Z,5.30
2017-11-27T10:52:46.640Z,5.40
2017-11-27T10:55:15.632Z,5.40
2017-11-27T10:57:45.413Z,5.30
2017-11-27T11:00:15.164Z,5.40
2017-11-27T11:02:44.433Z,5.40
2017-11-27T11:05:13.747Z,5.50
2017-11-27T11:07:42.719Z,5.50
2017-11-27T11:10:11.822Z,5.60
2017-11-27T11:12:40.858Z,5.50
2017-11-27T11:15:09.820Z,5.60
2017-11-27T11:17:38.830Z,5.60
2017-11-27T11:20:07.841Z,5.60
2017-11-27T11:22:36.806Z,5.60
2017-11-27T11:25:05.844Z,5.70
2017-11-27T11:27:34.828Z,5.70
2017-11-27T11:30:03.815Z,5.70
2017-11-27T11:32:32.807Z,5.70
2017-11-27T11:35:01.822Z,5.90
2017-11-27T11:37:50.367Z,5.80
2017-11-27T11:40:20.765Z,5.90
2017-11-27T11:42:48.764Z,6.00
2017-11-27T11:45:18.657Z,6.00
2017-11-27T11:47:49.413Z,6.00
2017-11-27T11:50:19.128Z,6.00
2017-11-27T11:52:48.203Z,6.00
2017-11-27T11:55:17.278Z,6.10
2017-11-27T11:57:46.237Z,6.10
2017-11-27T12:00:15.199Z,6.10
2017-11-27T12:02:44.180Z,6.20
2017-11-27T12:05:13.357Z,6.20
2017-11-27T12:07:43.328Z,6.20
2017-11-27T12:10:13.109Z,6.20
2017-11-27T12:12:43.161Z,6.20
2017-11-27T12:15:12.426Z,6.20
2017-11-27T12:17:41.490Z,6.30
2017-11-27T12:20:10.740Z,6.30
2017-11-27T12:22:39.766Z,6.30
2017-11-27T12:25:11.492Z,6.40
2017-11-27T12:27:41.280Z,6.40
2017-11-27T12:30:10.382Z,6.40
2017-11-27T12:32:39.796Z,6.50
2017-11-27T12:35:09.562Z,6.40
2017-11-27T12:37:39.355Z,6.50
2017-11-27T12:40:08.564Z,6.50
2017-11-27T12:42:37.954Z,6.50
2017-11-27T12:45:07.743Z,6.50
2017-11-27T12:47:36.781Z,6.60
2017-11-27T12:50:05.757Z,6.60
2017-11-27T12:52:34.820Z,6.70
2017-11-27T12:55:03.877Z,6.70
2017-11-27T12:57:33.275Z,6.70
2017-11-27T13:00:03.042Z,6.80
2017-11-27T13:02:32.061Z,6.70
2017-11-27T13:05:02.279Z,6.70
2017-11-27T13:07:31.257Z,6.80
2017-11-27T13:10:00.245Z,6.70
2017-11-27T13:12:29.250Z,6.80
2017-11-27T13:14:58.222Z,6.80
2017-11-27T13:17:27.238Z,6.80
2017-11-27T13:19:56.551Z,6.70
2017-11-27T13:22:27.430Z,6.70
2017-11-27T13:24:57.906Z,6.80
2017-11-27T13:27:27.289Z,6.80
2017-11-27T13:29:56.347Z,6.90
2017-11-27T13:32:26.088Z,6.90
2017-11-27T13:34:55.481Z,6.80
2017-11-27T13:37:24.831Z,6.90
2017-11-27T13:39:54.319Z,6.90
2017-11-27T13:42:24.891Z,6.90
2017-11-27T13:44:53.840Z,7.00
2017-11-27T13:47:23.259Z,7.00
2017-11-27T13:49:52.412Z,7.10
2017-11-27T13:52:22.464Z,6.90
2017-11-27T13:54:51.828Z,7.00
2017-11-27T13:57:21.296Z,7.10
2017-11-27T13:59:50.677Z,7.10
2017-11-27T14:02:19.693Z,7.00
2017-11-27T14:04:48.824Z,7.10
2017-11-27T14:07:18.113Z,7.10
2017-11-27T14:09:47.332Z,7.10
2017-11-27T14:12:16.350Z,7.20
2017-11-27T14:14:48.012Z,7.10
2017-11-27T14:17:17.029Z,7.20
2017-11-27T14:19:47.443Z,7.20
2017-11-27T14:22:17.223Z,7.20
2017-11-27T14:24:46.498Z,7.20
2017-11-27T14:27:15.595Z,7.10
2017-11-27T14:29:45.485Z,7.20
2017-11-27T14:32:15.645Z,7.20
2017-11-27T14:34:44.611Z,7.20
2017-11-27T14:37:13.589Z,7.20
2017-11-27T14:39:42.606Z,7.20
2017-11-27T14:42:11.713Z,7.20
2017-11-27T14:44:41.650Z,7.20
2017-11-27T14:47:10.627Z,7.20
2017-11-27T14:49:42.363Z,7.10
2017-11-27T14:52:11.354Z,7.10
2017-11-27T14:54:40.362Z,7.20
2017-11-27T14:57:09.344Z,7.20
2017-11-27T14:59:38.314Z,7.30
2017-11-27T15:02:07.286Z,7.30
2017-11-27T15:04:36.276Z,7.20
2017-11-27T15:07:05.995Z,7.20
2017-11-27T15:09:35.035Z,7.10
2017-11-27T15:12:04.036Z,7.20
2017-11-27T15:14:33.470Z,7.30
2017-11-27T15:17:02.462Z,7.30
2017-11-27T15:19:31.449Z,7.30
2017-11-27T15:22:00.423Z,7.30
2017-11-27T15:24:30.709Z,7.20
2017-11-27T15:26:59.809Z,7.20
2017-11-27T15:29:29.135Z,7.20
2017-11-27T15:31:58.090Z,7.20
2017-11-27T15:34:28.111Z,7.10
2017-11-27T15:36:57.170Z,7.10
2017-11-27T15:39:34.651Z,7.10
2017-11-27T15:42:06.609Z,7.10
2017-11-27T15:44:35.968Z,7.10
2017-11-27T15:47:05.857Z,7.10
2017-11-27T15:49:54.006Z,7.10
2017-11-27T15:52:23.002Z,7.00
2017-11-27T15:54:52.034Z,7.00
2017-11-27T15:57:20.997Z,7.10
2017-11-27T15:59:49.975Z,7.00
2017-11-27T16:02:19.002Z,7.00
2017-11-27T16:04:47.946Z,7.00
2017-11-27T16:07:17.695Z,7.00
2017-11-27T16:09:46.666Z,7.00
2017-11-27T16:12:16.405Z,7.10
2017-11-27T16:14:45.391Z,7.10
2017-11-27T16:17:14.642Z,7.10
2017-11-27T16:19:44.382Z,7.20
2017-11-27T16:22:13.450Z,7.30
2017-11-27T16:24:43.536Z,7.30
2017-11-27T16:27:12.532Z,7.40
2017-11-27T16:29:41.506Z,7.40
2017-11-27T16:32:10.532Z,7.50
2017-11-27T16:34:54.781Z,7.50
2017-11-27T16:37:24.550Z,7.40
2017-11-27T16:39:53.544Z,7.50
2017-11-27T16:42:22.537Z,7.40
2017-11-27T16:44:51.595Z,7.40
2017-11-27T16:47:20.553Z,7.40
2017-11-27T16:49:50.684Z,7.40
2017-11-27T16:52:20.760Z,7.40
2017-11-27T16:54:49.722Z,7.50
2017-11-27T16:57:20.209Z,7.50
2017-11-27T17:02:54.129Z,7.50
2017-11-27T17:05:23.112Z,7.60
2017-11-27T17:07:52.118Z,7.50
2017-11-27T17:10:37.107Z,7.50
2017-11-27T17:19:38.448Z,7.50
2017-11-27T17:23:34.848Z,7.50
2017-11-27T17:26:05.648Z,7.40
2017-11-27T17:28:34.761Z,7.40
2017-11-27T17:31:03.850Z,7.40
2017-11-27T17:33:32.859Z,7.50
2017-11-27T17:36:03.115Z,7.50
2017-11-27T17:38:32.842Z,7.50
2017-11-27T17:41:01.826Z,7.50
2017-11-27T17:43:51.193Z,7.50
2017-11-27T17:46:20.268Z,7.40
2017-11-27T17:48:50.271Z,7.50
2017-11-27T17:51:19.689Z,7.40
2017-11-27T17:53:48.688Z,7.50
2017-11-27T17:56:17.713Z,7.60
2017-11-27T17:58:46.875Z,7.50
2017-11-27T18:01:16.284Z,7.40
2017-11-27T18:03:45.306Z,7.40
2017-11-27T18:06:14.323Z,7.40
2017-11-27T18:08:44.109Z,7.40
2017-11-27T18:11:13.101Z,7.40
2017-11-27T18:13:42.530Z,7.50
2017-11-27T18:16:12.274Z,7.50
2017-11-27T18:18:41.304Z,7.60
2017-11-27T18:21:10.915Z,7.50
2017-11-27T18:23:40.007Z,7.50
2017-11-27T18:26:09.044Z,7.60
2017-11-27T18:28:38.130Z,7.50
2017-11-27T18:31:07.108Z,7.50
2017-11-27T18:33:41.378Z,7.50
2017-11-27T18:36:10.404Z,7.50
2017-11-27T18:38:39.432Z,7.50
2017-11-27T18:41:09.245Z,7.50
2017-11-27T18:43:38.226Z,7.50
2017-11-27T18:46:08.026Z,7.50
2017-11-27T18:48:40.390Z,7.40
2017-11-27T18:51:13.518Z,7.40
2017-11-27T18:53:42.559Z,7.50
2017-11-27T18:56:44.702Z,7.40
2017-11-27T18:59:13.776Z,7.40
2017-11-27T19:04:21.281Z,7.40
2017-11-27T19:06:51.063Z,7.40
2017-11-27T19:09:20.816Z,7.40
2017-11-27T19:12:04.277Z,7.40
2017-11-27T19:14:34.065Z,7.40
2017-11-27T19:17:03.092Z,7.30
2017-11-27T19:19:32.122Z,7.40
2017-11-27T19:22:01.312Z,7.30
2017-11-27T19:24:30.774Z,7.40
2017-11-27T19:26:59.825Z,7.40
2017-11-27T19:29:29.594Z,7.50
2017-11-27T19:31:59.349Z,7.50
2017-11-27T19:34:29.173Z,7.40
2017-11-27T19:36:59.008Z,7.40
2017-11-27T19:39:28.645Z,7.40
2017-11-27T19:41:57.672Z,7.40
2017-11-27T19:44:26.708Z,7.30
2017-11-27T19:46:55.765Z,7.30
2017-11-27T19:49:24.777Z,7.30
2017-11-27T19:54:48.559Z,7.30
2017-11-27T19:57:17.662Z,7.20
2017-11-27T19:59:47.546Z,7.20
2017-11-27T20:02:16.562Z,7.20
2017-11-27T20:04:46.715Z,7.20
2017-11-27T20:07:15.767Z,7.10
2017-11-27T20:09:44.806Z,7.10
2017-11-27T20:12:15.846Z,7.10
2017-11-27T20:14:44.841Z,7.10
2017-11-27T20:17:14.248Z,7.10
2017-11-27T20:19:44.210Z,7.20
2017-11-27T20:22:14.001Z,7.20
2017-11-27T20:24:43.281Z,7.20
2017-11-27T20:27:13.331Z,7.20
2017-11-27T20:29:42.685Z,7.10
2017-11-27T20:32:12.534Z,7.10
2017-11-27T20:34:42.018Z,7.10
2017-11-27T20:37:11.494Z,7.10
2017-11-27T20:39:40.944Z,7.10
2017-11-27T20:42:11.745Z,7.00
2017-11-27T20:44:40.783Z,7.10
2017-11-27T20:47:11.183Z,6.90
2017-11-27T20:49:42.861Z,7.00
2017-11-27T20:52:13.624Z,6.90
2017-11-27T20:54:45.530Z,6.80
2017-11-27T20:57:25.516Z,6.80
2017-11-27T20:59:55.438Z,6.90
2017-11-27T21:02:25.465Z,6.80
2017-11-27T21:04:55.601Z,6.80
2017-11-27T21:07:25.369Z,6.80
2017-11-27T21:09:54.736Z,6.80
2017-11-27T21:12:23.838Z,6.70
2017-11-27T21:15:05.245Z,6.60
2017-11-27T21:17:35.010Z,6.60
2017-11-27T21:20:04.866Z,6.70
2017-11-27T21:22:33.902Z,6.70
2017-11-27T21:25:02.917Z,6.70
2017-11-27T21:27:31.898Z,6.70
2017-11-27T21:30:00.966Z,6.70
2017-11-27T21:32:29.943Z,6.70
2017-11-27T21:34:59.015Z,6.70
2017-11-27T21:37:28.152Z,6.70
2017-11-27T21:39:57.692Z,6.70
2017-11-27T21:42:26.744Z,6.70
2017-11-27T21:44:55.760Z,6.70
2017-11-27T21:47:25.185Z,6.70
2017-11-27T21:49:55.207Z,6.70
2017-11-27T21:52:24.167Z,6.60
2017-11-27T21:54:53.591Z,6.70
2017-11-27T21:57:22.570Z,6.70
2017-11-27T21:59:51.630Z,6.70
2017-11-27T22:02:20.652Z,6.70
2017-11-27T22:04:49.638Z,6.80
2017-11-27T22:07:19.429Z,6.80
2017-11-27T22:09:48.431Z,6.80
2017-11-27T22:12:17.517Z,6.80
2017-11-27T22:14:46.502Z,6.60
2017-11-27T22:17:17.361Z,6.60
2017-11-27T22:19:47.461Z,6.50
2017-11-27T22:22:16.419Z,6.40
2017-11-27T22:24:46.174Z,6.30
2017-11-27T22:27:15.158Z,6.30
2017-11-27T22:29:44.143Z,6.30
2017-11-27T22:32:13.106Z,6.30
2017-11-27T22:34:44.152Z,6.30
2017-11-27T22:37:13.862Z,6.20
2017-11-27T22:39:43.254Z,6.30
2017-11-27T22:42:12.214Z,6.20
2017-11-27T22:44:41.245Z,6.30
2017-11-27T22:47:10.989Z,6.30
2017-11-27T22:49:39.978Z,6.20
2017-11-27T22:52:08.974Z,6.20
2017-11-27T22:54:52.516Z,6.20
2017-11-27T22:57:21.538Z,6.30
2017-11-27T22:59:50.515Z,6.20
2017-11-27T23:02:32.309Z,6.30
2017-11-27T23:05:01.636Z,6.30
2017-11-27T23:08:03.168Z,6.40
2017-11-27T23:10:33.277Z,6.40
2017-11-27T23:13:03.108Z,6.30
2017-11-27T23:15:32.506Z,6.20
2017-11-27T23:18:02.407Z,6.20
2017-11-27T23:20:31.783Z,6.20
2017-11-27T23:23:00.806Z,6.10
2017-11-27T23:25:29.853Z,6.10
2017-11-27T23:27:59.589Z,6.10
2017-11-27T23:30:29.433Z,6.10
2017-11-27T23:32:59.562Z,6.00
2017-11-27T23:35:28.978Z,6.00
2017-11-27T23:37:58.034Z,6.00
2017-11-27T23:40:27.063Z,5.90
2017-11-27T23:42:56.072Z,5.70
2017-11-27T23:45:25.109Z,5.80
2017-11-27T23:47:54.090Z,5.80
2017-11-27T23:50:23.526Z,5.80
2017-11-27T23:52:52.555Z,5.80
2017-11-27T23:55:21.564Z,5.80
2017-11-27T23:57:51.281Z,5.80
